createdAt,value
2022-08-03T00:18:47.310Z,99.70
2022-08-03T00:22:50.485Z,99.70
2022-08-03T00:26:53.267Z,99.90
2022-08-03T00:30:56.798Z,99.40
2022-08-03T00:35:00.983Z,99.30
2022-08-03T00:39:11.275Z,99.80
2022-08-03T00:43:14.432Z,99.80
2022-08-03T00:47:17.252Z,99.50
2022-08-03T00:51:21.996Z,99.70
2022-08-03T00:55:25.416Z,99.00
2022-08-03T00:59:28.455Z,98.90
2022-08-03T01:03:31.327Z,99.00
2022-08-03T01:07:42.200Z,98.90
2022-08-03T01:12:01.205Z,98.80
2022-08-03T01:16:09.572Z,98.70
2022-08-03T01:20:14.593Z,98.60
2022-08-03T01:24:24.293Z,98.50
2022-08-03T01:28:35.132Z,99.00
2022-08-03T01:32:59.603Z,99.20
2022-08-03T01:37:07.245Z,99.10
2022-08-03T01:41:13.134Z,98.80
2022-08-03T01:45:17.980Z,99.30
2022-08-03T01:49:22.205Z,99.40
2022-08-03T01:53:25.836Z,98.80
2022-08-03T01:57:29.404Z,99.30
2022-08-03T02:02:28.907Z,99.00
2022-08-03T02:06:40.973Z,99.10
2022-08-03T02:10:34.205Z,99.10
2022-08-03T02:14:40.347Z,99.00
2022-08-03T02:18:43.343Z,99.00
2022-08-03T02:22:47.800Z,99.50
2022-08-03T02:26:52.254Z,99.80
2022-08-03T02:30:55.957Z,99.90
2022-08-03T02:35:00.407Z,99.30
2022-08-03T02:39:05.676Z,99.80
2022-08-03T02:43:10.318Z,99.80
2022-08-03T02:47:15.531Z,99.40
2022-08-03T02:51:19.734Z,99.60
2022-08-03T02:55:24.970Z,99.50
2022-08-03T02:59:31.215Z,99.30
2022-08-03T03:03:37.936Z,99.30
2022-08-03T03:07:53.004Z,99.30
2022-08-03T03:11:57.944Z,99.50
2022-08-03T03:16:01.654Z,99.40
2022-08-03T03:20:05.041Z,99.40
2022-08-03T03:24:09.022Z,99.70
2022-08-03T03:28:13.492Z,99.80
2022-08-03T03:32:16.639Z,99.70
2022-08-03T03:36:19.944Z,99.60
2022-08-03T03:40:24.867Z,99.90
2022-08-03T03:44:29.290Z,99.90
2022-08-03T03:48:32.314Z,99.70
2022-08-03T03:52:35.492Z,99.90
2022-08-03T03:56:38.430Z,99.90
2022-08-03T04:00:44.631Z,99.90
2022-08-03T04:05:05.136Z,99.90
2022-08-03T04:09:26.234Z,99.90
2022-08-03T04:13:32.188Z,99.90
2022-08-03T04:17:36.825Z,99.90
2022-08-03T04:21:42.483Z,99.90
2022-08-03T04:25:45.519Z,99.90
2022-08-03T04:29:50.040Z,99.90
2022-08-03T04:33:54.888Z,99.90
2022-08-03T04:37:58.681Z,99.90
2022-08-03T04:42:07.900Z,99.90
2022-08-03T04:46:12.199Z,99.90
2022-08-03T04:50:21.217Z,99.90
2022-08-03T04:54:24.460Z,99.90
2022-08-03T04:58:27.282Z,99.90
2022-08-03T05:02:30.192Z,99.90
2022-08-03T05:06:34.420Z,99.90
2022-08-03T05:10:38.201Z,99.90
2022-08-03T05:14:41.015Z,99.90
2022-08-03T05:18:44.181Z,99.90
2022-08-03T05:22:48.409Z,99.90
2022-08-03T05:26:51.274Z,99.90
2022-08-03T05:30:54.136Z,99.90
2022-08-03T05:34:56.955Z,99.90
2022-08-03T05:39:02.938Z,99.90
2022-08-03T05:43:05.847Z,99.90
2022-08-03T05:47:08.759Z,99.90
2022-08-03T05:51:12.368Z,99.90
2022-08-03T05:55:17.777Z,99.90
2022-08-03T05:59:37.521Z,99.90
2022-08-03T06:03:41.169Z,99.90
2022-08-03T06:07:44.314Z,99.90
2022-08-03T06:11:48.484Z,99.90
2022-08-03T06:15:51.307Z,99.90
2022-08-03T06:19:54.618Z,99.90
2022-08-03T06:23:57.452Z,99.90
2022-08-03T06:28:01.646Z,99.90
2022-08-03T06:32:04.579Z,99.90
2022-08-03T06:36:07.779Z,99.90
2022-08-03T06:40:11.453Z,99.90
2022-08-03T06:44:18.220Z,99.90
2022-08-03T06:48:21.014Z,99.90
2022-08-03T06:52:37.947Z,99.90
2022-08-03T06:56:41.411Z,99.90
2022-08-03T07:00:45.647Z,99.90
2022-08-03T07:04:48.645Z,99.90
2022-08-03T07:08:53.649Z,99.90
2022-08-03T07:12:58.302Z,99.90
2022-08-03T07:17:11.395Z,99.90
2022-08-03T07:21:16.719Z,99.90
2022-08-03T07:25:19.935Z,99.90
2022-08-03T22:43:38.710Z,94.60
2022-08-03T22:47:42.094Z,94.60
2022-08-03T22:51:45.859Z,94.90
2022-08-03T22:55:49.076Z,94.70
2022-08-03T22:59:53.238Z,94.90
2022-08-03T23:04:02.352Z,94.90
2022-08-03T23:08:06.449Z,95.00
2022-08-03T23:12:09.593Z,95.20
2022-08-03T23:16:14.952Z,95.10
2022-08-03T23:20:32.315Z,95.30
2022-08-03T23:24:37.218Z,95.30
2022-08-03T23:28:40.817Z,95.50
2022-08-03T23:32:45.095Z,95.50
2022-08-03T23:36:58.143Z,95.30
2022-08-03T23:41:01.980Z,95.40
2022-08-03T23:45:06.627Z,94.90
2022-08-03T23:49:10.853Z,95.30
2022-08-03T23:53:18.035Z,95.20
2022-08-03T23:57:29.566Z,95.80
